sensor_id;sensor_type;location;lat;lon;timestamp;P1;durP1;ratioP1;P2;durP2;ratioP2
62673;SDS011;62269;47.594;17.638;2023-06-22T00:00:12;13.40;;;6.40;;
62673;SDS011;62269;47.594;17.638;2023-06-22T00:01:10;12.43;;;7.12;;
62673;SDS011;62269;47.594;17.638;2023-06-22T00:02:07;13.65;;;6.22;;
62673;SDS011;62269;47.594;17.638;2023-06-22T00:03:04;17.98;;;7.45;;
62673;SDS011;62269;47.594;17.638;2023-06-22T00:04:01;13.23;;;6.45;;
62673;SDS011;62269;47.594;17.638;2023-06-22T00:04:58;12.52;;;6.25;;
62673;SDS011;62269;47.594;17.638;2023-06-22T00:05:55;10.77;;;6.28;;
62673;SDS011;62269;47.594;17.638;2023-06-22T00:06:53;14.43;;;6.15;;
62673;SDS011;62269;47.594;17.638;2023-06-22T00:07:50;12.15;;;6.43;;
62673;SDS011;62269;47.594;17.638;2023-06-22T00:08:47;9.10;;;7.07;;
62673;SDS011;62269;47.594;17.638;2023-06-22T00:09:44;15.95;;;7.53;;
62673;SDS011;62269;47.594;17.638;2023-06-22T00:10:41;15.70;;;6.22;;
62673;SDS011;62269;47.594;17.638;2023-06-22T00:11:39;11.80;;;5.60;;
62673;SDS011;62269;47.594;17.638;2023-06-22T00:12:36;14.32;;;6.62;;
62673;SDS011;62269;47.594;17.638;2023-06-22T00:13:34;13.27;;;5.95;;
62673;SDS011;62269;47.594;17.638;2023-06-22T00:14:31;13.18;;;6.72;;
62673;SDS011;62269;47.594;17.638;2023-06-22T00:15:28;12.55;;;6.40;;
62673;SDS011;62269;47.594;17.638;2023-06-22T00:16:25;10.65;;;6.47;;
62673;SDS011;62269;47.594;17.638;2023-06-22T00:17:22;14.68;;;6.25;;
62673;SDS011;62269;47.594;17.638;2023-06-22T00:18:19;15.75;;;6.47;;
62673;SDS011;62269;47.594;17.638;2023-06-22T00:19:17;14.02;;;7.68;;
62673;SDS011;62269;47.594;17.638;2023-06-22T00:20:17;13.18;;;6.28;;
62673;SDS011;62269;47.594;17.638;2023-06-22T00:21:17;11.10;;;6.28;;
62673;SDS011;62269;47.594;17.638;2023-06-22T00:22:16;9.93;;;5.75;;
62673;SDS011;62269;47.594;17.638;2023-06-22T00:23:13;19.55;;;6.82;;
62673;SDS011;62269;47.594;17.638;2023-06-22T00:24:12;11.65;;;6.40;;
62673;SDS011;62269;47.594;17.638;2023-06-22T00:25:10;12.05;;;6.22;;
62673;SDS011;62269;47.594;17.638;2023-06-22T00:26:08;9.93;;;5.90;;
62673;SDS011;62269;47.594;17.638;2023-06-22T00:27:05;9.68;;;5.93;;
62673;SDS011;62269;47.594;17.638;2023-06-22T00:28:02;14.63;;;6.53;;
62673;SDS011;62269;47.594;17.638;2023-06-22T00:29:00;10.52;;;5.95;;
62673;SDS011;62269;47.594;17.638;2023-06-22T00:29:57;12.48;;;6.28;;
62673;SDS011;62269;47.594;17.638;2023-06-22T00:30:54;12.40;;;6.20;;
62673;SDS011;62269;47.594;17.638;2023-06-22T00:31:51;13.82;;;6.37;;
62673;SDS011;62269;47.594;17.638;2023-06-22T00:32:48;9.38;;;6.53;;
62673;SDS011;62269;47.594;17.638;2023-06-22T00:33:45;13.30;;;6.40;;
62673;SDS011;62269;47.594;17.638;2023-06-22T00:34:43;11.00;;;6.07;;
62673;SDS011;62269;47.594;17.638;2023-06-22T00:35:40;15.25;;;6.22;;
62673;SDS011;62269;47.594;17.638;2023-06-22T00:36:38;14.68;;;6.72;;
62673;SDS011;62269;47.594;17.638;2023-06-22T00:37:37;10.95;;;6.25;;
62673;SDS011;62269;47.594;17.638;2023-06-22T00:38:37;9.93;;;5.73;;
62673;SDS011;62269;47.594;17.638;2023-06-22T00:39:36;7.32;;;5.60;;
62673;SDS011;62269;47.594;17.638;2023-06-22T00:40:33;10.82;;;6.07;;
62673;SDS011;62269;47.594;17.638;2023-06-22T00:41:31;12.30;;;6.62;;
62673;SDS011;62269;47.594;17.638;2023-06-22T00:42:28;10.65;;;6.07;;
62673;SDS011;62269;47.594;17.638;2023-06-22T00:43:25;11.70;;;6.18;;
62673;SDS011;62269;47.594;17.638;2023-06-22T00:44:22;11.38;;;6.45;;
62673;SDS011;62269;47.594;17.638;2023-06-22T00:45:19;7.85;;;5.95;;
62673;SDS011;62269;47.594;17.638;2023-06-22T00:46:16;9.90;;;6.03;;
62673;SDS011;62269;47.594;17.638;2023-06-22T00:47:14;11.12;;;6.55;;
62673;SDS011;62269;47.594;17.638;2023-06-22T00:48:13;11.50;;;5.93;;
62673;SDS011;62269;47.594;17.638;2023-06-22T00:49:10;11.50;;;6.47;;
62673;SDS011;62269;47.594;17.638;2023-06-22T00:50:08;10.85;;;6.62;;
62673;SDS011;62269;47.594;17.638;2023-06-22T00:51:06;9.25;;;6.25;;
62673;SDS011;62269;47.594;17.638;2023-06-22T00:52:03;12.65;;;6.62;;
62673;SDS011;62269;47.594;17.638;2023-06-22T00:53:05;11.02;;;6.15;;
62673;SDS011;62269;47.594;17.638;2023-06-22T00:54:06;11.75;;;5.65;;
62673;SDS011;62269;47.594;17.638;2023-06-22T00:55:03;12.82;;;6.50;;
62673;SDS011;62269;47.594;17.638;2023-06-22T00:56:01;10.20;;;6.40;;
62673;SDS011;62269;47.594;17.638;2023-06-22T00:56:59;10.45;;;6.55;;
62673;SDS011;62269;47.594;17.638;2023-06-22T00:57:57;10.43;;;6.28;;
62673;SDS011;62269;47.594;17.638;2023-06-22T00:58:54;11.95;;;6.40;;
62673;SDS011;62269;47.594;17.638;2023-06-22T00:59:51;10.75;;;6.55;;
62673;SDS011;62269;47.594;17.638;2023-06-22T01:00:48;12.85;;;6.30;;
62673;SDS011;62269;47.594;17.638;2023-06-22T01:01:45;11.85;;;6.60;;
62673;SDS011;62269;47.594;17.638;2023-06-22T01:02:43;13.25;;;5.87;;
62673;SDS011;62269;47.594;17.638;2023-06-22T01:03:42;10.23;;;5.82;;
62673;SDS011;62269;47.594;17.638;2023-06-22T01:04:39;9.95;;;6.07;;
62673;SDS011;62269;47.594;17.638;2023-06-22T01:05:37;9.27;;;5.70;;
62673;SDS011;62269;47.594;17.638;2023-06-22T01:06:35;12.02;;;6.35;;
62673;SDS011;62269;47.594;17.638;2023-06-22T01:09:44;12.10;;;6.25;;
62673;SDS011;62269;47.594;17.638;2023-06-22T01:12:02;10.82;;;6.22;;
62673;SDS011;62269;47.594;17.638;2023-06-22T01:13:02;9.52;;;6.70;;
62673;SDS011;62269;47.594;17.638;2023-06-22T01:14:06;12.30;;;6.70;;
62673;SDS011;62269;47.594;17.638;2023-06-22T01:15:10;10.88;;;6.72;;
62673;SDS011;62269;47.594;17.638;2023-06-22T01:16:13;12.18;;;6.30;;
62673;SDS011;62269;47.594;17.638;2023-06-22T01:17:14;12.35;;;6.60;;
62673;SDS011;62269;47.594;17.638;2023-06-22T01:18:13;12.52;;;6.47;;
62673;SDS011;62269;47.594;17.638;2023-06-22T01:20:43;11.93;;;6.35;;
62673;SDS011;62269;47.594;17.638;2023-06-22T01:21:40;13.62;;;6.55;;
62673;SDS011;62269;47.594;17.638;2023-06-22T01:24:19;8.05;;;6.32;;
62673;SDS011;62269;47.594;17.638;2023-06-22T01:25:20;10.18;;;6.37;;
62673;SDS011;62269;47.594;17.638;2023-06-22T01:26:19;10.45;;;6.10;;
62673;SDS011;62269;47.594;17.638;2023-06-22T01:28:50;14.27;;;5.97;;
62673;SDS011;62269;47.594;17.638;2023-06-22T01:29:52;9.38;;;6.80;;
62673;SDS011;62269;47.594;17.638;2023-06-22T01:30:57;12.07;;;6.75;;
62673;SDS011;62269;47.594;17.638;2023-06-22T01:32:02;10.57;;;6.28;;
62673;SDS011;62269;47.594;17.638;2023-06-22T01:33:03;11.38;;;6.45;;
62673;SDS011;62269;47.594;17.638;2023-06-22T01:34:03;9.13;;;6.10;;
62673;SDS011;62269;47.594;17.638;2023-06-22T01:35:03;13.95;;;6.10;;
62673;SDS011;62269;47.594;17.638;2023-06-22T01:36:02;12.77;;;6.50;;
62673;SDS011;62269;47.594;17.638;2023-06-22T01:37:00;11.48;;;6.57;;
62673;SDS011;62269;47.594;17.638;2023-06-22T01:37:57;10.60;;;6.35;;
62673;SDS011;62269;47.594;17.638;2023-06-22T01:38:54;9.63;;;5.75;;
62673;SDS011;62269;47.594;17.638;2023-06-22T01:39:54;10.80;;;6.80;;
62673;SDS011;62269;47.594;17.638;2023-06-22T01:40:52;13.85;;;6.57;;
62673;SDS011;62269;47.594;17.638;2023-06-22T01:41:50;11.80;;;6.20;;
62673;SDS011;62269;47.594;17.638;2023-06-22T01:42:47;10.20;;;6.18;;
62673;SDS011;62269;47.594;17.638;2023-06-22T01:43:44;13.52;;;6.43;;
62673;SDS011;62269;47.594;17.638;2023-06-22T01:44:42;12.70;;;6.32;;
62673;SDS011;62269;47.594;17.638;2023-06-22T01:45:47;14.52;;;7.00;;
62673;SDS011;62269;47.594;17.638;2023-06-22T01:46:44;11.15;;;6.22;;
62673;SDS011;62269;47.594;17.638;2023-06-22T01:47:42;12.82;;;6.28;;
62673;SDS011;62269;47.594;17.638;2023-06-22T01:48:39;10.10;;;6.10;;
62673;SDS011;62269;47.594;17.638;2023-06-22T01:49:36;10.57;;;6.37;;
62673;SDS011;62269;47.594;17.638;2023-06-22T01:50:34;10.95;;;6.15;;
62673;SDS011;62269;47.594;17.638;2023-06-22T01:51:31;15.68;;;6.90;;
62673;SDS011;62269;47.594;17.638;2023-06-22T01:52:28;10.80;;;6.00;;
62673;SDS011;62269;47.594;17.638;2023-06-22T01:53:25;13.68;;;6.50;;
62673;SDS011;62269;47.594;17.638;2023-06-22T01:54:22;9.52;;;6.00;;
62673;SDS011;62269;47.594;17.638;2023-06-22T01:55:19;12.57;;;6.65;;
62673;SDS011;62269;47.594;17.638;2023-06-22T01:56:17;9.20;;;6.12;;
62673;SDS011;62269;47.594;17.638;2023-06-22T01:57:14;11.48;;;6.40;;
62673;SDS011;62269;47.594;17.638;2023-06-22T01:58:12;11.52;;;6.28;;
62673;SDS011;62269;47.594;17.638;2023-06-22T02:00:31;11.68;;;6.62;;
62673;SDS011;62269;47.594;17.638;2023-06-22T02:01:35;11.40;;;6.45;;
62673;SDS011;62269;47.594;17.638;2023-06-22T02:04:06;11.68;;;6.55;;
62673;SDS011;62269;47.594;17.638;2023-06-22T02:05:10;14.65;;;7.37;;
62673;SDS011;62269;47.594;17.638;2023-06-22T02:06:15;11.43;;;6.18;;
62673;SDS011;62269;47.594;17.638;2023-06-22T02:07:15;13.43;;;6.80;;
62673;SDS011;62269;47.594;17.638;2023-06-22T02:08:16;9.55;;;7.30;;
62673;SDS011;62269;47.594;17.638;2023-06-22T02:09:17;11.45;;;6.55;;
62673;SDS011;62269;47.594;17.638;2023-06-22T02:10:16;12.45;;;6.65;;
62673;SDS011;62269;47.594;17.638;2023-06-22T02:11:17;9.85;;;6.70;;
62673;SDS011;62269;47.594;17.638;2023-06-22T02:12:16;10.30;;;6.15;;
62673;SDS011;62269;47.594;17.638;2023-06-22T02:13:15;13.60;;;6.65;;
62673;SDS011;62269;47.594;17.638;2023-06-22T02:14:12;11.00;;;6.82;;
62673;SDS011;62269;47.594;17.638;2023-06-22T02:15:10;13.70;;;6.87;;
62673;SDS011;62269;47.594;17.638;2023-06-22T02:16:12;9.65;;;6.95;;
62673;SDS011;62269;47.594;17.638;2023-06-22T02:17:10;9.38;;;6.53;;
62673;SDS011;62269;47.594;17.638;2023-06-22T02:18:07;10.57;;;6.70;;
62673;SDS011;62269;47.594;17.638;2023-06-22T02:19:04;12.43;;;7.00;;
62673;SDS011;62269;47.594;17.638;2023-06-22T02:20:03;10.25;;;6.68;;
62673;SDS011;62269;47.594;17.638;2023-06-22T02:21:05;11.75;;;6.78;;
62673;SDS011;62269;47.594;17.638;2023-06-22T02:22:02;11.57;;;7.22;;
62673;SDS011;62269;47.594;17.638;2023-06-22T02:23:00;9.60;;;6.43;;
62673;SDS011;62269;47.594;17.638;2023-06-22T02:23:57;11.18;;;6.70;;
62673;SDS011;62269;47.594;17.638;2023-06-22T02:24:55;10.88;;;6.85;;
62673;SDS011;62269;47.594;17.638;2023-06-22T02:25:52;10.88;;;6.70;;
62673;SDS011;62269;47.594;17.638;2023-06-22T02:26:50;8.85;;;6.10;;
62673;SDS011;62269;47.594;17.638;2023-06-22T02:27:47;13.88;;;6.70;;
62673;SDS011;62269;47.594;17.638;2023-06-22T02:28:44;13.27;;;7.00;;
62673;SDS011;62269;47.594;17.638;2023-06-22T02:29:42;10.25;;;6.65;;
62673;SDS011;62269;47.594;17.638;2023-06-22T02:30:39;12.13;;;6.10;;
62673;SDS011;62269;47.594;17.638;2023-06-22T02:31:36;11.88;;;6.50;;
62673;SDS011;62269;47.594;17.638;2023-06-22T02:32:33;12.25;;;6.35;;
62673;SDS011;62269;47.594;17.638;2023-06-22T02:33:30;10.10;;;6.60;;
62673;SDS011;62269;47.594;17.638;2023-06-22T02:34:28;10.10;;;7.00;;
62673;SDS011;62269;47.594;17.638;2023-06-22T02:35:28;10.38;;;6.40;;
62673;SDS011;62269;47.594;17.638;2023-06-22T02:36:28;10.02;;;7.05;;
62673;SDS011;62269;47.594;17.638;2023-06-22T02:37:27;11.75;;;6.60;;
62673;SDS011;62269;47.594;17.638;2023-06-22T02:38:26;11.88;;;6.82;;
62673;SDS011;62269;47.594;17.638;2023-06-22T02:39:23;10.90;;;7.03;;
62673;SDS011;62269;47.594;17.638;2023-06-22T02:40:21;13.65;;;6.78;;
62673;SDS011;62269;47.594;17.638;2023-06-22T02:41:18;12.50;;;6.70;;
62673;SDS011;62269;47.594;17.638;2023-06-22T02:42:15;11.40;;;7.20;;
62673;SDS011;62269;47.594;17.638;2023-06-22T02:43:17;13.23;;;7.37;;
62673;SDS011;62269;47.594;17.638;2023-06-22T02:44:14;12.65;;;6.60;;
62673;SDS011;62269;47.594;17.638;2023-06-22T02:45:12;10.55;;;6.93;;
62673;SDS011;62269;47.594;17.638;2023-06-22T02:46:09;10.35;;;6.37;;
62673;SDS011;62269;47.594;17.638;2023-06-22T02:47:06;15.60;;;6.28;;
62673;SDS011;62269;47.594;17.638;2023-06-22T02:48:04;11.20;;;6.75;;
62673;SDS011;62269;47.594;17.638;2023-06-22T02:49:01;10.98;;;6.37;;
62673;SDS011;62269;47.594;17.638;2023-06-22T02:49:58;9.73;;;7.00;;
62673;SDS011;62269;47.594;17.638;2023-06-22T02:50:55;10.80;;;6.90;;
62673;SDS011;62269;47.594;17.638;2023-06-22T02:51:53;10.05;;;6.70;;
62673;SDS011;62269;47.594;17.638;2023-06-22T02:52:50;17.05;;;7.28;;
62673;SDS011;62269;47.594;17.638;2023-06-22T02:53:47;11.75;;;6.47;;
62673;SDS011;62269;47.594;17.638;2023-06-22T02:54:44;13.02;;;7.22;;
62673;SDS011;62269;47.594;17.638;2023-06-22T02:55:42;10.48;;;6.82;;
62673;SDS011;62269;47.594;17.638;2023-06-22T02:56:39;12.37;;;7.20;;
62673;SDS011;62269;47.594;17.638;2023-06-22T02:57:37;12.68;;;6.70;;
62673;SDS011;62269;47.594;17.638;2023-06-22T02:58:34;12.23;;;7.12;;
62673;SDS011;62269;47.594;17.638;2023-06-22T02:59:35;12.40;;;6.35;;
62673;SDS011;62269;47.594;17.638;2023-06-22T03:00:37;12.50;;;7.03;;
62673;SDS011;62269;47.594;17.638;2023-06-22T03:01:36;9.60;;;6.55;;
62673;SDS011;62269;47.594;17.638;2023-06-22T03:02:37;10.55;;;7.07;;
62673;SDS011;62269;47.594;17.638;2023-06-22T03:03:34;13.13;;;6.60;;
62673;SDS011;62269;47.594;17.638;2023-06-22T03:04:31;9.93;;;7.07;;
62673;SDS011;62269;47.594;17.638;2023-06-22T03:05:28;12.02;;;6.90;;
62673;SDS011;62269;47.594;17.638;2023-06-22T03:06:25;10.55;;;7.40;;
62673;SDS011;62269;47.594;17.638;2023-06-22T03:07:25;11.57;;;6.95;;
62673;SDS011;62269;47.594;17.638;2023-06-22T03:08:24;11.47;;;7.53;;
62673;SDS011;62269;47.594;17.638;2023-06-22T03:09:21;12.02;;;6.93;;
62673;SDS011;62269;47.594;17.638;2023-06-22T03:10:18;10.10;;;7.12;;
62673;SDS011;62269;47.594;17.638;2023-06-22T03:11:15;11.98;;;7.20;;
62673;SDS011;62269;47.594;17.638;2023-06-22T03:12:12;11.35;;;7.05;;
62673;SDS011;62269;47.594;17.638;2023-06-22T03:13:09;21.67;;;7.25;;
62673;SDS011;62269;47.594;17.638;2023-06-22T03:14:07;14.40;;;7.12;;
62673;SDS011;62269;47.594;17.638;2023-06-22T03:15:07;12.37;;;7.57;;
62673;SDS011;62269;47.594;17.638;2023-06-22T03:16:05;14.35;;;7.60;;
62673;SDS011;62269;47.594;17.638;2023-06-22T03:17:03;10.43;;;6.70;;
62673;SDS011;62269;47.594;17.638;2023-06-22T03:18:01;12.07;;;7.07;;
62673;SDS011;62269;47.594;17.638;2023-06-22T03:18:58;11.82;;;6.72;;
62673;SDS011;62269;47.594;17.638;2023-06-22T03:19:55;11.45;;;6.95;;
62673;SDS011;62269;47.594;17.638;2023-06-22T03:20:52;11.48;;;6.82;;
62673;SDS011;62269;47.594;17.638;2023-06-22T03:21:49;10.50;;;6.90;;
62673;SDS011;62269;47.594;17.638;2023-06-22T03:22:46;8.98;;;6.40;;
62673;SDS011;62269;47.594;17.638;2023-06-22T03:23:45;10.93;;;6.50;;
62673;SDS011;62269;47.594;17.638;2023-06-22T03:24:42;8.95;;;6.28;;
62673;SDS011;62269;47.594;17.638;2023-06-22T03:25:40;13.10;;;6.53;;
62673;SDS011;62269;47.594;17.638;2023-06-22T03:26:37;16.42;;;6.97;;
62673;SDS011;62269;47.594;17.638;2023-06-22T03:27:34;9.38;;;6.35;;
62673;SDS011;62269;47.594;17.638;2023-06-22T03:28:32;11.88;;;6.57;;
62673;SDS011;62269;47.594;17.638;2023-06-22T03:29:29;8.60;;;6.22;;
62673;SDS011;62269;47.594;17.638;2023-06-22T03:30:26;9.20;;;6.57;;
62673;SDS011;62269;47.594;17.638;2023-06-22T03:31:24;12.32;;;7.22;;
62673;SDS011;62269;47.594;17.638;2023-06-22T03:32:21;12.98;;;6.32;;
62673;SDS011;62269;47.594;17.638;2023-06-22T03:33:18;11.35;;;6.45;;
62673;SDS011;62269;47.594;17.638;2023-06-22T03:34:15;12.65;;;6.78;;
62673;SDS011;62269;47.594;17.638;2023-06-22T03:35:12;9.48;;;6.50;;
62673;SDS011;62269;47.594;17.638;2023-06-22T03:36:10;9.00;;;6.15;;
62673;SDS011;62269;47.594;17.638;2023-06-22T03:37:07;11.80;;;5.75;;
62673;SDS011;62269;47.594;17.638;2023-06-22T03:38:04;8.32;;;6.05;;
62673;SDS011;62269;47.594;17.638;2023-06-22T03:39:01;12.70;;;6.78;;
62673;SDS011;62269;47.594;17.638;2023-06-22T03:39:58;12.75;;;7.00;;
62673;SDS011;62269;47.594;17.638;2023-06-22T03:40:55;10.00;;;6.43;;
62673;SDS011;62269;47.594;17.638;2023-06-22T03:41:52;10.70;;;7.03;;
62673;SDS011;62269;47.594;17.638;2023-06-22T03:42:50;9.98;;;6.60;;
62673;SDS011;62269;47.594;17.638;2023-06-22T03:43:46;9.02;;;6.18;;
62673;SDS011;62269;47.594;17.638;2023-06-22T03:44:44;11.63;;;6.45;;
62673;SDS011;62269;47.594;17.638;2023-06-22T03:45:41;11.90;;;6.85;;
62673;SDS011;62269;47.594;17.638;2023-06-22T03:46:38;8.90;;;6.25;;
62673;SDS011;62269;47.594;17.638;2023-06-22T03:47:35;9.98;;;6.82;;
62673;SDS011;62269;47.594;17.638;2023-06-22T03:48:32;11.73;;;6.60;;
62673;SDS011;62269;47.594;17.638;2023-06-22T03:49:29;10.70;;;6.05;;
62673;SDS011;62269;47.594;17.638;2023-06-22T03:50:26;10.18;;;6.43;;
62673;SDS011;62269;47.594;17.638;2023-06-22T03:51:24;10.75;;;6.53;;
62673;SDS011;62269;47.594;17.638;2023-06-22T03:52:21;10.32;;;6.25;;
62673;SDS011;62269;47.594;17.638;2023-06-22T03:53:19;13.00;;;6.75;;
62673;SDS011;62269;47.594;17.638;2023-06-22T03:54:16;10.48;;;7.07;;
62673;SDS011;62269;47.594;17.638;2023-06-22T03:55:12;13.35;;;7.12;;
62673;SDS011;62269;47.594;17.638;2023-06-22T03:56:10;10.55;;;6.12;;
62673;SDS011;62269;47.594;17.638;2023-06-22T03:57:07;15.40;;;6.57;;
62673;SDS011;62269;47.594;17.638;2023-06-22T03:58:04;9.82;;;6.53;;
62673;SDS011;62269;47.594;17.638;2023-06-22T03:59:02;14.13;;;6.60;;
62673;SDS011;62269;47.594;17.638;2023-06-22T03:59:59;15.20;;;7.12;;
62673;SDS011;62269;47.594;17.638;2023-06-22T04:00:56;14.90;;;6.65;;
62673;SDS011;62269;47.594;17.638;2023-06-22T04:01:53;10.55;;;7.12;;
62673;SDS011;62269;47.594;17.638;2023-06-22T04:02:51;9.95;;;6.47;;
62673;SDS011;62269;47.594;17.638;2023-06-22T04:03:48;16.17;;;8.02;;
62673;SDS011;62269;47.594;17.638;2023-06-22T04:04:46;14.48;;;6.90;;
62673;SDS011;62269;47.594;17.638;2023-06-22T04:05:43;11.38;;;6.90;;
62673;SDS011;62269;47.594;17.638;2023-06-22T04:06:40;10.40;;;6.10;;
62673;SDS011;62269;47.594;17.638;2023-06-22T04:07:37;10.82;;;6.62;;
62673;SDS011;62269;47.594;17.638;2023-06-22T04:08:34;11.07;;;6.68;;
62673;SDS011;62269;47.594;17.638;2023-06-22T04:09:31;9.77;;;6.05;;
62673;SDS011;62269;47.594;17.638;2023-06-22T04:10:28;11.55;;;6.75;;
62673;SDS011;62269;47.594;17.638;2023-06-22T04:11:26;12.55;;;6.78;;
62673;SDS011;62269;47.594;17.638;2023-06-22T04:12:23;7.90;;;6.35;;
62673;SDS011;62269;47.594;17.638;2023-06-22T04:13:22;11.32;;;7.07;;
62673;SDS011;62269;47.594;17.638;2023-06-22T04:14:20;7.53;;;6.20;;
62673;SDS011;62269;47.594;17.638;2023-06-22T04:15:17;11.35;;;6.20;;
62673;SDS011;62269;47.594;17.638;2023-06-22T04:16:14;10.52;;;6.47;;
62673;SDS011;62269;47.594;17.638;2023-06-22T04:17:11;10.50;;;6.60;;
62673;SDS011;62269;47.594;17.638;2023-06-22T04:18:10;11.12;;;6.70;;
62673;SDS011;62269;47.594;17.638;2023-06-22T04:19:07;10.93;;;6.32;;
62673;SDS011;62269;47.594;17.638;2023-06-22T04:20:10;10.25;;;6.70;;
62673;SDS011;62269;47.594;17.638;2023-06-22T04:21:07;8.80;;;6.00;;
62673;SDS011;62269;47.594;17.638;2023-06-22T04:22:04;9.65;;;6.03;;
62673;SDS011;62269;47.594;17.638;2023-06-22T04:23:03;13.60;;;6.20;;
62673;SDS011;62269;47.594;17.638;2023-06-22T04:24:00;12.93;;;7.00;;
62673;SDS011;62269;47.594;17.638;2023-06-22T04:24:57;12.05;;;6.10;;
62673;SDS011;62269;47.594;17.638;2023-06-22T04:25:54;9.73;;;5.95;;
62673;SDS011;62269;47.594;17.638;2023-06-22T04:26:53;10.50;;;6.40;;
62673;SDS011;62269;47.594;17.638;2023-06-22T04:27:51;12.13;;;6.05;;
62673;SDS011;62269;47.594;17.638;2023-06-22T04:28:48;11.07;;;6.32;;
62673;SDS011;62269;47.594;17.638;2023-06-22T04:29:52;9.52;;;6.55;;
62673;SDS011;62269;47.594;17.638;2023-06-22T04:30:49;14.93;;;6.00;;
62673;SDS011;62269;47.594;17.638;2023-06-22T04:31:47;9.77;;;5.60;;
62673;SDS011;62269;47.594;17.638;2023-06-22T04:32:47;9.20;;;5.82;;
62673;SDS011;62269;47.594;17.638;2023-06-22T04:33:53;8.75;;;5.50;;
62673;SDS011;62269;47.594;17.638;2023-06-22T04:34:50;9.43;;;5.95;;
62673;SDS011;62269;47.594;17.638;2023-06-22T04:35:48;9.98;;;6.12;;
62673;SDS011;62269;47.594;17.638;2023-06-22T04:36:44;10.15;;;5.70;;
62673;SDS011;62269;47.594;17.638;2023-06-22T04:37:41;9.50;;;6.43;;
62673;SDS011;62269;47.594;17.638;2023-06-22T04:38:39;7.72;;;5.30;;
62673;SDS011;62269;47.594;17.638;2023-06-22T04:39:36;10.50;;;5.75;;
62673;SDS011;62269;47.594;17.638;2023-06-22T04:40:33;10.43;;;6.37;;
62673;SDS011;62269;47.594;17.638;2023-06-22T04:41:30;11.93;;;6.00;;
62673;SDS011;62269;47.594;17.638;2023-06-22T04:42:38;11.00;;;5.57;;
62673;SDS011;62269;47.594;17.638;2023-06-22T04:43:36;10.15;;;5.93;;
62673;SDS011;62269;47.594;17.638;2023-06-22T04:44:33;8.60;;;5.55;;
62673;SDS011;62269;47.594;17.638;2023-06-22T04:45:30;10.73;;;5.43;;
62673;SDS011;62269;47.594;17.638;2023-06-22T04:46:27;8.25;;;5.75;;
62673;SDS011;62269;47.594;17.638;2023-06-22T04:47:24;7.75;;;5.30;;
62673;SDS011;62269;47.594;17.638;2023-06-22T04:48:21;10.95;;;5.85;;
62673;SDS011;62269;47.594;17.638;2023-06-22T04:49:18;8.93;;;5.62;;
62673;SDS011;62269;47.594;17.638;2023-06-22T04:50:17;10.65;;;6.65;;
62673;SDS011;62269;47.594;17.638;2023-06-22T04:51:17;11.48;;;5.90;;
62673;SDS011;62269;47.594;17.638;2023-06-22T04:52:18;10.82;;;5.75;;
62673;SDS011;62269;47.594;17.638;2023-06-22T04:53:16;9.02;;;6.00;;
62673;SDS011;62269;47.594;17.638;2023-06-22T04:54:14;13.25;;;5.87;;
62673;SDS011;62269;47.594;17.638;2023-06-22T04:55:11;11.05;;;6.32;;
62673;SDS011;62269;47.594;17.638;2023-06-22T04:56:10;8.18;;;5.75;;
62673;SDS011;62269;47.594;17.638;2023-06-22T04:57:08;13.05;;;7.85;;
62673;SDS011;62269;47.594;17.638;2023-06-22T04:58:08;14.15;;;7.22;;
62673;SDS011;62269;47.594;17.638;2023-06-22T04:59:05;8.88;;;6.60;;
62673;SDS011;62269;47.594;17.638;2023-06-22T05:00:03;13.13;;;7.12;;
62673;SDS011;62269;47.594;17.638;2023-06-22T05:01:13;11.60;;;7.65;;
62673;SDS011;62269;47.594;17.638;2023-06-22T05:02:10;15.85;;;9.63;;
62673;SDS011;62269;47.594;17.638;2023-06-22T05:03:07;16.27;;;9.18;;
62673;SDS011;62269;47.594;17.638;2023-06-22T05:04:15;15.90;;;9.20;;
62673;SDS011;62269;47.594;17.638;2023-06-22T05:05:13;16.02;;;10.77;;
62673;SDS011;62269;47.594;17.638;2023-06-22T05:06:11;17.15;;;11.05;;
62673;SDS011;62269;47.594;17.638;2023-06-22T05:07:09;24.63;;;11.77;;
62673;SDS011;62269;47.594;17.638;2023-06-22T05:08:06;18.12;;;10.80;;
62673;SDS011;62269;47.594;17.638;2023-06-22T05:09:03;15.43;;;10.60;;
62673;SDS011;62269;47.594;17.638;2023-06-22T05:10:02;24.23;;;13.43;;
62673;SDS011;62269;47.594;17.638;2023-06-22T05:11:00;23.17;;;13.27;;
62673;SDS011;62269;47.594;17.638;2023-06-22T05:12:01;19.25;;;11.15;;
62673;SDS011;62269;47.594;17.638;2023-06-22T05:12:59;17.23;;;10.30;;
62673;SDS011;62269;47.594;17.638;2023-06-22T05:13:56;17.87;;;12.05;;
62673;SDS011;62269;47.594;17.638;2023-06-22T05:14:53;20.10;;;11.63;;
62673;SDS011;62269;47.594;17.638;2023-06-22T05:15:50;17.12;;;11.82;;
62673;SDS011;62269;47.594;17.638;2023-06-22T05:16:47;19.48;;;11.98;;
62673;SDS011;62269;47.594;17.638;2023-06-22T05:17:45;19.65;;;11.30;;
62673;SDS011;62269;47.594;17.638;2023-06-22T05:18:42;17.65;;;10.80;;
62673;SDS011;62269;47.594;17.638;2023-06-22T05:19:40;19.40;;;12.15;;
62673;SDS011;62269;47.594;17.638;2023-06-22T05:20:44;22.00;;;12.07;;
62673;SDS011;62269;47.594;17.638;2023-06-22T05:21:41;19.33;;;11.80;;
62673;SDS011;62269;47.594;17.638;2023-06-22T05:22:39;17.90;;;10.63;;
62673;SDS011;62269;47.594;17.638;2023-06-22T05:23:37;23.62;;;10.90;;
62673;SDS011;62269;47.594;17.638;2023-06-22T05:24:34;19.30;;;10.52;;
62673;SDS011;62269;47.594;17.638;2023-06-22T05:25:31;17.92;;;10.60;;
62673;SDS011;62269;47.594;17.638;2023-06-22T05:26:32;20.80;;;10.65;;
62673;SDS011;62269;47.594;17.638;2023-06-22T05:27:30;16.62;;;10.00;;
62673;SDS011;62269;47.594;17.638;2023-06-22T05:28:27;14.75;;;9.10;;
62673;SDS011;62269;47.594;17.638;2023-06-22T05:29:24;15.38;;;8.63;;
62673;SDS011;62269;47.594;17.638;2023-06-22T05:30:23;15.30;;;9.20;;
62673;SDS011;62269;47.594;17.638;2023-06-22T05:31:20;17.12;;;9.73;;
62673;SDS011;62269;47.594;17.638;2023-06-22T05:32:18;12.37;;;8.98;;
62673;SDS011;62269;47.594;17.638;2023-06-22T05:33:15;16.37;;;8.88;;
62673;SDS011;62269;47.594;17.638;2023-06-22T05:34:12;13.90;;;8.50;;
62673;SDS011;62269;47.594;17.638;2023-06-22T05:35:10;15.15;;;8.90;;
62673;SDS011;62269;47.594;17.638;2023-06-22T05:36:07;13.88;;;8.52;;
62673;SDS011;62269;47.594;17.638;2023-06-22T05:37:04;11.38;;;8.15;;
62673;SDS011;62269;47.594;17.638;2023-06-22T05:38:01;12.55;;;8.93;;
62673;SDS011;62269;47.594;17.638;2023-06-22T05:38:58;10.50;;;7.20;;
62673;SDS011;62269;47.594;17.638;2023-06-22T05:39:55;11.50;;;8.00;;
62673;SDS011;62269;47.594;17.638;2023-06-22T05:40:53;15.48;;;8.90;;
62673;SDS011;62269;47.594;17.638;2023-06-22T05:41:51;15.95;;;8.57;;
62673;SDS011;62269;47.594;17.638;2023-06-22T05:42:48;15.50;;;8.25;;
62673;SDS011;62269;47.594;17.638;2023-06-22T05:43:45;12.77;;;8.00;;
62673;SDS011;62269;47.594;17.638;2023-06-22T05:44:42;15.65;;;8.80;;
62673;SDS011;62269;47.594;17.638;2023-06-22T05:45:39;12.48;;;8.88;;
62673;SDS011;62269;47.594;17.638;2023-06-22T05:46:36;11.93;;;7.87;;
62673;SDS011;62269;47.594;17.638;2023-06-22T05:47:34;14.60;;;8.73;;
62673;SDS011;62269;47.594;17.638;2023-06-22T05:48:31;14.77;;;7.65;;
62673;SDS011;62269;47.594;17.638;2023-06-22T05:49:28;12.10;;;7.90;;
62673;SDS011;62269;47.594;17.638;2023-06-22T05:50:29;12.05;;;7.70;;
62673;SDS011;62269;47.594;17.638;2023-06-22T05:51:27;18.00;;;7.85;;